Eagle Crest, Oregon
Current Conditions -  °F | °C
As of 1:56 PM on Friday 24 Oct 2014 (Local Time) from KRDM Reporting Station
Overcast Overcast  
Wind Chill: 50°   Ceiling: 4100
Heat Index: 50°   Visibility: 10mi
Dew Point: 46°   Wind: 0mph
Humidity: 86%   Direction: NA
Pressure: 29.95"   Gusts: NA
Location:  44.2779°N, 121.217°W
Report Text: KRDM 242056Z 00000KT 10SM OVC041 10/08 A2995 RMK AO2 RAE51 SLP140 P0001 60002 T01000078 56020
Loading
Personal Weather Stations






























Interactive Weather Map
Tropical Storm Tracking
New forecast layout! Learn more

10-Day Weather Forecast

Advertisements
Track Severe Weather on mobile